Clinton, Louisiana
Current Conditions -  °F | °C
As of 11:53 PM on Saturday 22 Nov 2014 (Local Time) from KBTR Reporting Station
Overcast Overcast  
Wind Chill: 64°   Ceiling: 600
Heat Index: 64°   Visibility: 10mi
Dew Point: 61°   Wind: 13mph
Humidity: 90%   Direction: 100°E
Pressure: 29.87"   Gusts: NA
Location:  30.87°N, 91.02°W
Report Text: KBTR 230553Z 10011KT 10SM OVC006 18/16 A2987 RMK AO2 SLP115 T01780161 10178 20172 402110100 58018
Loading
Personal Weather Stations






























Interactive Weather Map New forecast layout! Learn more

10-Day Weather Forecast

Advertisements
Track Severe Weather on mobile